Thursday, October 19, 2017, 7:08 AM EDT
Back to Local

KFOK, The Gabreski Airport

Location: East Quogue, NY, United States Lat: 40.85
Local Time: 7:08 AM EDT (11:08 GMT) Lon: -72.617
Time Zone: US/Eastern Elev: 65 ft

Show me the last for .
Show Decoded

2017-10-19 07:03 METAR KFOK 191103Z 00000KT 10SM CLR 04/02 A3027 RMK AO2 T00390022 =
2017-10-19 06:53 METAR KFOK 191053Z AUTO 00000KT 10SM OVC002 04/03 A3028 RMK AO2 SLP252 T00390028
                 =
2017-10-19 05:53 METAR KFOK 190953Z AUTO 00000KT 10SM OVC003 04/03 A3028 RMK AO2 SLP254 T00440033
                 =
2017-10-19 04:53 METAR KFOK 190853Z AUTO 00000KT 10SM OVC003 04/03 A3028 RMK AO2 SLP254 T00390033
                 55003 =
2017-10-19 03:53 METAR KFOK 190753Z AUTO 00000KT 10SM OVC002 04/04 A3027 RMK AO2 SLP252 T00390039
                 =
2017-10-19 03:49 METAR KFOK 190749Z AUTO 00000KT 10SM OVC002 04/04 A3027 RMK AO2 =
2017-10-19 03:24 METAR KFOK 190724Z AUTO 00000KT 3SM BR OVC001 05/04 A3028 RMK AO2 T00500044 =
2017-10-19 03:21 METAR KFOK 190721Z AUTO 00000KT 1 1/4SM BR OVC001 05/04 A3028 RMK AO2 T00500044
                 =
2017-10-19 02:53 METAR KFOK 190653Z AUTO 00000KT 1/4SM FG VV001 05/04 A3029 RMK AO2 SLP255
                 T00500039 =
2017-10-19 02:42 METAR KFOK 190642Z AUTO 00000KT 1/4SM FG VV001 05/04 A3029 RMK AO2 T00500039 =
2017-10-19 02:40 METAR KFOK 190640Z AUTO 00000KT 1/2SM FG VV002 05/04 A3029 RMK AO2 T00500039 =
2017-10-19 02:34 METAR KFOK 190634Z AUTO 00000KT 1/4SM FG VV001 05/04 A3029 RMK AO2 T00500039 =
2017-10-19 02:24 METAR KFOK 190624Z AUTO 00000KT 1/2SM FG VV002 05/04 A3029 RMK AO2 T00500039 =
2017-10-19 02:17 METAR KFOK 190617Z AUTO 00000KT 1/4SM FG VV002 05/04 A3029 RMK AO2 T00500039 =
2017-10-19 01:53 METAR KFOK 190553Z AUTO 00000KT 1/4SM FG VV001 06/04 A3029 RMK AO2 SLP256
                 T00560044 10089 20050 56007 =
2017-10-19 00:56 METAR KFOK 190456Z AUTO 00000KT 1/4SM FG VV001 05/04 A3029 RMK AO2 T00500039 =
2017-10-19 00:53 METAR KFOK 190453Z AUTO 00000KT 1SM BR VV001 05/04 A3029 RMK AO2 SLP257
                 T00500039 402060000 =
2017-10-19 00:38 METAR KFOK 190438Z AUTO 00000KT 1SM BR VV002 06/04 A3029 RMK AO2 T00560044 =
2017-10-18 23:53 METAR KFOK 190353Z AUTO 00000KT 1/4SM FG VV004 06/04 A3030 RMK AO2 SLP259
                 T00560044 =
2017-10-18 23:49 METAR KFOK 190349Z AUTO 00000KT 1SM BR VV004 06/04 A3030 RMK AO2 =
2017-10-18 23:29 METAR KFOK 190329Z AUTO 00000KT 10SM FEW005 07/04 A3030 RMK AO2 T00670044 =
2017-10-18 22:53 METAR KFOK 190253Z 00000KT 10SM CLR 06/04 A3031 RMK AO2 SLP264 T00610044 51004 =
2017-10-18 21:53 METAR KFOK 190153Z 00000KT 10SM CLR 08/06 A3031 RMK AO2 SLP263 T00780061 =
2017-10-18 20:53 METAR KFOK 190053Z 25003KT 10SM CLR 09/07 A3031 RMK AO2 SLP263 T00890067 =
2017-10-18 19:53 METAR KFOK 182353Z 00000KT 10SM CLR 10/07 A3030 RMK AO2 SLP261 T01000072 10200
                 20094 51009 =
2017-10-18 18:53 METAR KFOK 182253Z 22003KT 10SM CLR 15/10 A3029 RMK AO2 SLP259 T01500100 =
2017-10-18 17:53 METAR KFOK 182153Z 21005KT 10SM CLR 16/10 A3028 RMK AO2 SLP255 T01610100 =
2017-10-18 16:53 METAR KFOK 182053Z 22008KT 10SM CLR 18/09 A3027 RMK AO2 SLP251 T01780094 56005 =
2017-10-18 15:53 METAR KFOK 181953Z 22006KT 10SM CLR 18/09 A3028 RMK AO2 SLP253 T01830094 =
2017-10-18 14:53 METAR KFOK 181853Z 18005KT 10SM CLR 19/09 A3028 RMK AO2 SLP255 T01940089 =
2017-10-18 13:53 METAR KFOK 181753Z VRB05KT 10SM CLR 20/09 A3029 RMK AO2 SLP257 T02000089 10206
                 20056 58011 =
2017-10-18 12:53 METAR KFOK 181653Z 14006KT 10SM CLR 19/09 A3031 RMK AO2 SLP264 T01940089 =
2017-10-18 11:53 METAR KFOK 181553Z 00000KT 10SM CLR 19/08 A3032 RMK AO2 SLP268 T01890078 =
2017-10-18 10:53 METAR KFOK 181453Z VRB04KT 10SM CLR 17/07 A3032 RMK AO2 SLP269 T01720067 50003 =
2017-10-18 09:53 METAR KFOK 181353Z 28006KT 10SM CLR 15/06 A3033 RMK AO2 SLP270 T01500061 =
2017-10-18 08:53 METAR KFOK 181253Z 26008KT 10SM CLR 12/05 A3033 RMK AO2 SLP270 T01170050 $ =
2017-10-18 07:53 METAR KFOK 181153Z 00000KT 10SM CLR 05/03 A3032 RMK AO2 SLP266 T00500033 10078
                 20000 51009 $ =

Support USWX by starting your Amazon purchase here.